createdAt,value
2018-12-11T00:02:08.843Z,93.41
2018-12-11T00:04:38.269Z,93.21
2018-12-11T00:07:07.640Z,92.94
2018-12-11T00:09:36.756Z,93.43
2018-12-11T00:12:06.022Z,92.15
2018-12-11T00:14:35.157Z,93.23
2018-12-11T00:17:04.300Z,92.50
2018-12-11T00:19:34.359Z,93.33
2018-12-11T00:22:03.699Z,92.92
2018-12-11T00:24:32.826Z,92.37
2018-12-11T00:27:01.928Z,92.18
2018-12-11T00:29:31.144Z,92.57
2018-12-11T00:32:00.327Z,92.06
2018-12-11T00:34:29.520Z,92.24
2018-12-11T00:36:58.702Z,91.27
2018-12-11T00:39:27.806Z,92.21
2018-12-11T00:41:57.237Z,90.57
2018-12-11T00:44:26.336Z,91.68
2018-12-11T00:46:55.477Z,90.76
2018-12-11T00:49:24.684Z,90.97
2018-12-11T00:51:53.823Z,90.96
2018-12-11T00:54:23.135Z,90.57
2018-12-11T00:56:52.280Z,90.96
2018-12-11T00:59:21.526Z,90.15
2018-12-11T01:01:51.474Z,91.39
2018-12-11T01:04:20.736Z,90.76
2018-12-11T01:06:49.888Z,91.30
2018-12-11T01:09:19.026Z,91.48
2018-12-11T01:11:48.187Z,91.01
2018-12-11T01:14:17.388Z,91.43
2018-12-11T01:16:46.587Z,91.87
2018-12-11T01:19:15.711Z,91.85
2018-12-11T01:21:44.827Z,91.28
2018-12-11T01:24:14.182Z,91.76
2018-12-11T01:26:43.575Z,91.22
2018-12-11T01:29:12.669Z,92.28
2018-12-11T01:31:41.823Z,92.31
2018-12-11T01:34:11.348Z,91.99
2018-12-11T01:36:40.506Z,91.44
2018-12-11T01:39:09.756Z,91.46
2018-12-11T01:41:39.129Z,91.20
2018-12-11T01:44:08.233Z,92.05
2018-12-11T01:46:38.381Z,92.46
2018-12-11T01:49:07.733Z,92.51
2018-12-11T01:51:37.033Z,91.99
2018-12-11T01:54:06.253Z,90.82
2018-12-11T01:56:35.372Z,91.96
2018-12-11T01:59:07.093Z,91.49
2018-12-11T02:01:36.254Z,91.54
2018-12-11T02:04:05.388Z,90.79
2018-12-11T02:06:35.000Z,90.25
2018-12-11T02:09:06.379Z,90.08
2018-12-11T02:11:35.506Z,90.63
2018-12-11T02:14:04.792Z,90.76
2018-12-11T02:16:33.977Z,91.08
2018-12-11T02:19:03.152Z,91.63
2018-12-11T02:21:32.282Z,91.39
2018-12-11T02:24:01.460Z,91.92
2018-12-11T02:26:30.634Z,92.46
2018-12-11T02:28:59.792Z,91.75
2018-12-11T02:31:28.884Z,92.11
2018-12-11T02:33:57.988Z,92.20
2018-12-11T02:36:27.158Z,92.60
2018-12-11T02:38:56.298Z,92.93
2018-12-11T02:41:25.444Z,91.95
2018-12-11T02:43:54.746Z,92.08
2018-12-11T02:46:24.162Z,91.88
2018-12-11T02:48:53.294Z,91.69
2018-12-11T02:51:22.502Z,91.50
2018-12-11T02:53:51.698Z,92.13
2018-12-11T02:56:20.890Z,91.51
2018-12-11T02:58:50.029Z,91.87
2018-12-11T03:01:19.120Z,92.27
2018-12-11T03:03:48.283Z,91.94
2018-12-11T03:06:17.616Z,91.99
2018-12-11T03:08:46.935Z,92.49
2018-12-11T03:11:16.054Z,92.52
2018-12-11T03:13:46.100Z,90.93
2018-12-11T03:16:15.844Z,92.04
2018-12-11T03:18:45.411Z,91.89
2018-12-11T03:21:14.648Z,91.16
2018-12-11T03:23:43.873Z,92.24
2018-12-11T03:26:13.150Z,92.51
2018-12-11T03:28:42.434Z,92.11
2018-12-11T03:31:11.764Z,91.90
2018-12-11T03:33:41.012Z,91.28
2018-12-11T03:36:10.773Z,92.05
2018-12-11T03:38:40.130Z,91.82
2018-12-11T03:41:09.427Z,92.27
2018-12-11T03:43:38.736Z,91.30
2018-12-11T03:46:08.056Z,92.40
2018-12-11T03:48:37.224Z,92.44
2018-12-11T03:51:06.339Z,93.02
2018-12-11T03:53:35.552Z,93.49
2018-12-11T03:56:04.648Z,94.05
2018-12-11T03:58:33.932Z,94.78
2018-12-11T04:01:03.072Z,94.55
2018-12-11T04:03:32.217Z,94.34
2018-12-11T04:06:01.540Z,93.49
2018-12-11T04:08:30.674Z,93.15
2018-12-11T04:10:59.960Z,93.12
2018-12-11T04:13:29.102Z,93.06
2018-12-11T04:15:58.341Z,93.05
2018-12-11T04:18:27.534Z,93.74
2018-12-11T04:20:56.692Z,94.11
2018-12-11T04:23:26.149Z,94.84
2018-12-11T04:25:55.373Z,93.95
2018-12-11T04:28:24.509Z,92.56
2018-12-11T04:30:53.724Z,93.24
2018-12-11T04:33:23.299Z,91.72
2018-12-11T04:35:52.428Z,92.03
2018-12-11T04:38:21.598Z,91.58
2018-12-11T04:40:51.221Z,92.32
2018-12-11T04:43:20.409Z,91.16
2018-12-11T04:45:49.592Z,90.82
2018-12-11T04:48:18.732Z,91.41
2018-12-11T04:50:47.913Z,91.10
2018-12-11T04:53:17.032Z,91.21
2018-12-11T04:55:46.136Z,91.69
2018-12-11T04:58:15.309Z,91.61
2018-12-11T05:00:44.419Z,91.74
2018-12-11T05:03:13.671Z,92.20
2018-12-11T05:05:43.106Z,92.57
2018-12-11T05:08:15.379Z,92.82
2018-12-11T05:10:44.749Z,93.03
2018-12-11T05:13:13.943Z,92.86
2018-12-11T05:15:43.153Z,93.34
2018-12-11T05:18:14.791Z,92.55
2018-12-11T05:20:44.027Z,92.36
2018-12-11T05:23:13.218Z,93.36
2018-12-11T05:25:42.365Z,92.96
2018-12-11T05:28:11.497Z,93.24
2018-12-11T05:30:40.604Z,92.85
2018-12-11T05:33:09.816Z,92.64
2018-12-11T05:35:38.988Z,93.74
2018-12-11T05:38:08.148Z,92.66
2018-12-11T05:40:37.602Z,93.08
2018-12-11T05:43:06.879Z,91.72
2018-12-11T05:45:36.335Z,92.06
2018-12-11T05:48:05.546Z,92.42
2018-12-11T05:50:34.853Z,92.23
2018-12-11T05:53:04.123Z,91.28
2018-12-11T05:55:33.229Z,91.06
2018-12-11T05:58:02.379Z,91.73
2018-12-11T06:00:31.811Z,92.07
2018-12-11T06:03:01.053Z,92.12
2018-12-11T06:05:30.172Z,90.88
2018-12-11T06:07:59.292Z,92.03
2018-12-11T06:10:28.447Z,91.34
2018-12-11T06:12:57.657Z,91.94
2018-12-11T06:15:26.799Z,92.21
2018-12-11T06:17:55.918Z,91.71
2018-12-11T06:20:28.937Z,91.51
2018-12-11T06:22:58.136Z,92.13
2018-12-11T06:25:27.272Z,91.93
2018-12-11T06:27:56.409Z,92.12
2018-12-11T06:30:25.594Z,91.56
2018-12-11T06:32:54.852Z,92.00
2018-12-11T06:35:24.221Z,91.89
2018-12-11T06:37:53.471Z,91.98
2018-12-11T06:40:22.662Z,92.30
2018-12-11T06:42:51.847Z,92.94
2018-12-11T06:45:21.060Z,92.37
2018-12-11T06:47:50.174Z,91.95
2018-12-11T06:50:19.360Z,91.70
2018-12-11T06:52:48.479Z,91.48
2018-12-11T06:55:17.651Z,92.52
2018-12-11T06:57:46.856Z,91.72
2018-12-11T07:00:16.115Z,91.76
2018-12-11T07:02:45.301Z,91.81
2018-12-11T07:05:14.459Z,91.76
2018-12-11T07:07:43.625Z,91.50
2018-12-11T07:10:12.807Z,92.69
2018-12-11T07:12:41.937Z,91.82
2018-12-11T07:15:11.068Z,92.06
2018-12-11T07:17:40.290Z,92.58
2018-12-11T07:20:09.698Z,92.54
2018-12-11T07:22:38.904Z,92.23
2018-12-11T07:25:08.088Z,93.08
2018-12-11T07:27:37.310Z,92.12
2018-12-11T07:30:07.957Z,92.39
2018-12-11T07:32:37.254Z,92.20
2018-12-11T07:35:06.762Z,92.12
2018-12-11T07:37:35.902Z,91.94
2018-12-11T07:40:05.330Z,91.94
2018-12-11T07:42:34.497Z,91.03
2018-12-11T07:45:04.461Z,92.41
2018-12-11T07:47:34.083Z,92.18
2018-12-11T07:50:03.527Z,90.95
2018-12-11T07:52:32.682Z,91.38
2018-12-11T07:55:01.962Z,91.46
2018-12-11T07:57:31.353Z,90.99
2018-12-11T08:00:00.584Z,90.65
2018-12-11T08:02:29.786Z,90.35
2018-12-11T08:04:58.901Z,90.08
2018-12-11T08:07:28.074Z,90.37
2018-12-11T08:09:57.183Z,90.86
2018-12-11T08:12:26.764Z,90.53
2018-12-11T08:14:56.293Z,89.85
2018-12-11T08:17:25.789Z,90.71
2018-12-11T08:19:54.975Z,90.20
2018-12-11T08:22:24.085Z,89.47
2018-12-11T08:24:53.383Z,89.81
2018-12-11T08:27:22.540Z,89.80
2018-12-11T08:29:51.649Z,89.87
2018-12-11T08:32:20.745Z,90.31
2018-12-11T08:34:49.890Z,89.74
2018-12-11T08:37:19.080Z,89.59
2018-12-11T08:39:48.250Z,89.19
2018-12-11T08:42:17.429Z,89.20
2018-12-11T08:44:51.230Z,89.13
2018-12-11T08:47:17.864Z,89.41
2018-12-11T08:49:47.036Z,89.68
2018-12-11T08:52:16.300Z,89.04
2018-12-11T08:54:45.487Z,88.35
2018-12-11T08:57:14.724Z,89.25
2018-12-11T08:59:43.848Z,88.44
2018-12-11T09:02:13.092Z,88.35
2018-12-11T09:04:42.208Z,88.87
2018-12-11T09:07:11.585Z,89.36
2018-12-11T09:09:40.909Z,89.26
2018-12-11T09:12:10.095Z,88.66
2018-12-11T09:14:39.253Z,88.71
2018-12-11T09:17:10.275Z,88.48
2018-12-11T09:19:39.743Z,88.39
2018-12-11T09:22:09.113Z,88.15
2018-12-11T09:24:38.317Z,87.59
2018-12-11T09:27:07.417Z,87.27
2018-12-11T09:29:36.597Z,87.54
2018-12-11T09:32:05.881Z,89.13
2018-12-11T09:34:35.016Z,88.17
2018-12-11T09:37:04.172Z,87.62
2018-12-11T09:39:33.293Z,86.69
2018-12-11T09:42:07.080Z,87.00
2018-12-11T09:44:33.657Z,86.71
2018-12-11T09:47:02.943Z,86.61
2018-12-11T09:49:32.075Z,85.27
2018-12-11T09:52:01.349Z,85.71
2018-12-11T09:54:30.462Z,86.01
2018-12-11T09:56:59.692Z,86.40
2018-12-11T09:59:28.906Z,86.90
2018-12-11T10:01:58.281Z,87.48
2018-12-11T10:04:27.402Z,86.04
2018-12-11T10:06:56.528Z,86.83
2018-12-11T10:09:25.697Z,87.02
2018-12-11T10:11:55.073Z,86.75
2018-12-11T10:14:24.201Z,86.64
2018-12-11T10:16:53.443Z,87.09
2018-12-11T10:19:22.563Z,86.94
2018-12-11T10:21:51.735Z,87.48
2018-12-11T10:24:22.998Z,86.91
2018-12-11T10:26:52.334Z,86.31
2018-12-11T10:29:21.656Z,86.68
2018-12-11T10:31:50.791Z,86.26
2018-12-11T10:34:19.946Z,86.10
2018-12-11T10:36:49.561Z,86.89
2018-12-11T10:39:18.852Z,85.59
2018-12-11T10:41:48.616Z,85.89
2018-12-11T10:44:18.122Z,85.61
2018-12-11T10:46:47.691Z,86.13
2018-12-11T10:49:17.030Z,86.73
2018-12-11T10:51:46.277Z,86.40
2018-12-11T10:54:15.416Z,86.82
2018-12-11T10:56:44.670Z,85.79
2018-12-11T10:59:13.806Z,84.47
2018-12-11T11:01:45.108Z,85.22
2018-12-11T11:04:14.546Z,85.87
2018-12-11T11:06:43.777Z,83.39
2018-12-11T11:09:12.969Z,84.33
2018-12-11T11:11:42.166Z,84.67
2018-12-11T11:14:11.740Z,83.83
2018-12-11T11:16:40.957Z,85.22
2018-12-11T11:19:10.227Z,85.16
2018-12-11T11:21:39.450Z,84.47
2018-12-11T11:24:08.635Z,83.19
2018-12-11T11:26:37.820Z,83.32
2018-12-11T11:29:07.038Z,84.19
2018-12-11T11:31:36.434Z,84.52
2018-12-11T11:34:08.775Z,83.65
2018-12-11T11:36:38.078Z,83.47
2018-12-11T11:39:07.723Z,82.80
2018-12-11T11:41:36.894Z,84.03
2018-12-11T11:44:06.007Z,83.66
2018-12-11T11:46:35.149Z,84.02
2018-12-11T11:49:04.332Z,83.44
2018-12-11T11:51:33.530Z,83.88
2018-12-11T11:54:02.840Z,84.04
2018-12-11T11:56:31.991Z,83.50
2018-12-11T11:59:01.247Z,83.75
2018-12-11T12:01:30.382Z,83.29
2018-12-11T12:03:59.586Z,83.18
2018-12-11T12:06:28.711Z,83.49
2018-12-11T12:08:59.379Z,83.11
2018-12-11T12:11:28.942Z,84.25
2018-12-11T12:13:59.125Z,83.73
2018-12-11T12:16:28.323Z,84.08
2018-12-11T12:18:57.490Z,83.86
2018-12-11T12:21:26.790Z,83.42
2018-12-11T12:23:55.902Z,83.92
2018-12-11T12:26:25.031Z,84.24
2018-12-11T12:28:54.241Z,83.79
2018-12-11T12:31:24.061Z,84.40
2018-12-11T12:33:53.485Z,84.41
2018-12-11T12:36:22.614Z,84.45
2018-12-11T12:38:51.786Z,83.42
2018-12-11T12:41:21.083Z,84.25
2018-12-11T12:43:50.495Z,83.46
2018-12-11T12:46:20.067Z,84.58
2018-12-11T12:48:55.165Z,84.16
2018-12-11T12:51:24.452Z,82.79
2018-12-11T12:53:53.579Z,83.15
2018-12-11T12:56:55.773Z,83.33
2018-12-11T12:59:27.882Z,83.93
2018-12-11T13:02:01.300Z,85.15
2018-12-11T13:04:30.409Z,84.73
2018-12-11T13:06:59.823Z,84.67
2018-12-11T13:09:29.063Z,84.83
2018-12-11T13:11:58.382Z,85.08
2018-12-11T13:14:28.018Z,84.85
2018-12-11T13:16:57.512Z,85.76
2018-12-11T13:19:28.303Z,86.07
2018-12-11T13:21:57.500Z,86.25
2018-12-11T13:24:26.704Z,86.85
2018-12-11T13:26:55.850Z,88.27
2018-12-11T13:29:25.019Z,88.70
2018-12-11T13:31:54.497Z,87.94
2018-12-11T13:34:23.795Z,87.38
2018-12-11T13:36:52.941Z,88.48
2018-12-11T13:39:22.070Z,87.99
2018-12-11T13:41:51.349Z,88.58
2018-12-11T13:44:20.693Z,90.04
2018-12-11T13:46:50.404Z,88.92
2018-12-11T13:49:19.535Z,89.15
2018-12-11T13:51:48.820Z,89.77
2018-12-11T13:54:18.098Z,88.86
2018-12-11T13:56:47.356Z,88.89
2018-12-11T13:59:16.596Z,89.00
2018-12-11T14:01:45.900Z,89.91
2018-12-11T14:04:15.149Z,88.78
2018-12-11T14:06:44.293Z,89.43
2018-12-11T14:09:19.121Z,89.59
2018-12-11T14:11:48.323Z,88.81
2018-12-11T14:14:17.426Z,89.67
2018-12-11T14:16:46.558Z,89.55
2018-12-11T14:19:15.647Z,90.01
2018-12-11T14:21:44.809Z,88.66
2018-12-11T14:24:13.953Z,88.53
2018-12-11T14:26:43.032Z,87.70
2018-12-11T14:29:12.881Z,88.48
2018-12-11T14:31:42.318Z,87.77
2018-12-11T14:34:11.525Z,87.75
2018-12-11T14:36:40.638Z,87.95
2018-12-11T14:39:09.904Z,88.12
2018-12-11T14:41:39.010Z,87.80
2018-12-11T14:44:08.302Z,87.93
2018-12-11T14:46:37.775Z,87.71
2018-12-11T14:49:06.905Z,88.63
2018-12-11T14:51:36.038Z,87.76
2018-12-11T14:54:05.611Z,87.33
2018-12-11T14:56:34.707Z,87.85
2018-12-11T14:59:03.967Z,87.81
2018-12-11T15:01:33.085Z,87.92
2018-12-11T15:04:02.239Z,87.98
2018-12-11T15:06:31.342Z,88.47
2018-12-11T15:12:00.945Z,88.87
2018-12-11T15:14:30.118Z,88.36
2018-12-11T15:16:59.257Z,89.06
2018-12-11T15:19:28.438Z,89.38
2018-12-11T15:21:57.704Z,88.24
2018-12-11T15:24:26.874Z,88.89
2018-12-11T15:26:56.032Z,89.43
2018-12-11T15:29:25.304Z,89.84
2018-12-11T15:31:54.707Z,89.11
2018-12-11T15:34:24.104Z,89.10
2018-12-11T15:36:53.407Z,89.55
2018-12-11T15:39:22.508Z,89.79
2018-12-11T15:41:54.566Z,90.50
2018-12-11T15:44:24.073Z,89.66
2018-12-11T15:46:53.653Z,90.10
2018-12-11T15:49:52.883Z,89.67
2018-12-11T15:52:22.172Z,89.89
2018-12-11T15:54:51.333Z,89.81
2018-12-11T15:57:20.610Z,89.46
2018-12-11T15:59:49.826Z,89.51
2018-12-11T16:02:30.851Z,90.28
2018-12-11T16:05:00.146Z,90.36
2018-12-11T16:07:29.292Z,91.29
2018-12-11T16:09:58.442Z,91.17
2018-12-11T16:12:27.640Z,91.68
2018-12-11T16:14:56.814Z,90.96
2018-12-11T16:17:26.066Z,91.13
2018-12-11T16:19:55.248Z,90.55
2018-12-11T16:22:24.374Z,91.37
2018-12-11T16:24:53.974Z,91.77
2018-12-11T16:27:23.423Z,92.10
2018-12-11T16:29:52.819Z,91.56
2018-12-11T16:32:22.038Z,91.41
2018-12-11T16:34:51.853Z,91.71
2018-12-11T16:37:21.735Z,91.87
2018-12-11T16:39:50.930Z,92.23
2018-12-11T16:42:22.793Z,91.91
2018-12-11T16:44:51.926Z,91.80
2018-12-11T16:47:21.123Z,91.58
2018-12-11T16:49:50.265Z,91.24
2018-12-11T16:52:19.416Z,91.36
2018-12-11T16:54:48.723Z,90.70
2018-12-11T16:57:17.943Z,91.07
2018-12-11T16:59:47.132Z,91.71
2018-12-11T17:02:16.522Z,90.99
2018-12-11T17:04:45.711Z,90.69
2018-12-11T17:07:15.426Z,91.53
2018-12-11T17:09:44.858Z,91.21
2018-12-11T17:12:14.223Z,91.59
2018-12-11T17:14:43.724Z,92.16
2018-12-11T17:17:12.927Z,91.85
2018-12-11T17:19:42.093Z,90.92
2018-12-11T17:22:11.259Z,91.23
2018-12-11T17:24:40.637Z,90.68
2018-12-11T17:27:11.189Z,92.17
2018-12-11T17:29:40.435Z,91.22
2018-12-11T17:32:09.659Z,92.56
2018-12-11T17:34:38.835Z,92.04
2018-12-11T17:37:08.049Z,91.71
2018-12-11T17:39:37.534Z,91.03
2018-12-11T17:44:46.756Z,91.99
2018-12-11T17:47:16.221Z,91.61
2018-12-11T17:49:45.364Z,91.30
2018-12-11T17:52:14.494Z,92.04
2018-12-11T17:54:43.639Z,91.83
2018-12-11T17:57:12.791Z,91.84
2018-12-11T17:59:42.036Z,92.38
2018-12-11T18:02:13.251Z,92.21
2018-12-11T18:04:42.408Z,92.59
2018-12-11T18:07:11.673Z,92.12
2018-12-11T18:09:40.808Z,92.05
2018-12-11T18:12:10.045Z,91.82
2018-12-11T18:14:39.654Z,91.77
2018-12-11T18:17:09.257Z,91.67
2018-12-11T18:19:38.392Z,91.06
2018-12-11T18:22:07.614Z,91.37
2018-12-11T18:24:36.863Z,90.84
2018-12-11T18:27:06.174Z,91.44
2018-12-11T18:29:35.816Z,91.85
2018-12-11T18:32:05.298Z,91.08
2018-12-11T18:34:36.555Z,91.58
2018-12-11T18:37:06.148Z,91.48
2018-12-11T18:39:35.355Z,91.28
2018-12-11T18:42:04.507Z,91.79
2018-12-11T18:44:34.148Z,91.54
2018-12-11T18:47:03.861Z,91.28
2018-12-11T18:49:32.969Z,91.51
2018-12-11T18:52:02.645Z,92.07
2018-12-11T18:54:31.813Z,91.66
2018-12-11T18:57:01.040Z,92.07
2018-12-11T18:59:30.217Z,91.91
2018-12-11T19:01:59.459Z,92.16
2018-12-11T19:04:33.306Z,92.04
2018-12-11T19:07:02.535Z,91.59
2018-12-11T19:09:31.663Z,91.88
2018-12-11T19:12:00.948Z,91.37
2018-12-11T19:14:30.087Z,91.72
2018-12-11T19:16:59.447Z,92.19
2018-12-11T19:19:28.650Z,92.22
2018-12-11T19:21:57.766Z,91.77
2018-12-11T19:24:26.887Z,92.61
2018-12-11T19:26:56.038Z,92.53
2018-12-11T19:29:25.453Z,92.77
2018-12-11T19:31:55.274Z,92.64
2018-12-11T19:34:24.519Z,92.82
2018-12-11T19:36:53.711Z,92.66
2018-12-11T19:39:25.899Z,92.22
2018-12-11T19:41:55.240Z,92.80
2018-12-11T19:44:24.397Z,93.16
2018-12-11T19:46:53.569Z,92.61
2018-12-11T19:49:22.706Z,93.30
2018-12-11T19:51:51.903Z,93.22
2018-12-11T19:54:21.053Z,93.26
2018-12-11T19:56:50.515Z,93.25
2018-12-11T19:59:19.767Z,93.37
2018-12-11T20:01:49.303Z,93.77
2018-12-11T20:04:19.443Z,92.85
2018-12-11T20:06:48.662Z,92.84
2018-12-11T20:09:17.792Z,93.67
2018-12-11T20:11:47.024Z,93.32
2018-12-11T20:14:16.287Z,93.31
2018-12-11T20:16:45.413Z,94.13
2018-12-11T20:19:14.578Z,93.21
2018-12-11T20:21:44.124Z,94.10
2018-12-11T20:24:13.273Z,94.58
2018-12-11T20:26:42.683Z,94.29
2018-12-11T20:29:11.853Z,93.85
2018-12-11T20:31:40.986Z,94.41
2018-12-11T20:34:10.198Z,94.11
2018-12-11T20:36:39.343Z,94.83
2018-12-11T20:39:08.701Z,94.16
2018-12-11T20:41:38.004Z,94.43
2018-12-11T20:44:07.299Z,95.15
2018-12-11T20:46:36.448Z,94.49
2018-12-11T20:49:05.745Z,94.44
2018-12-11T20:51:34.984Z,94.60
2018-12-11T20:54:04.142Z,95.32
2018-12-11T20:56:33.678Z,94.85
2018-12-11T20:59:05.767Z,95.35
2018-12-11T21:01:34.883Z,95.66
2018-12-11T21:04:04.118Z,95.07
2018-12-11T21:06:33.448Z,95.38
2018-12-11T21:09:02.918Z,95.51
2018-12-11T21:11:32.313Z,95.35
2018-12-11T21:14:01.618Z,95.59
2018-12-11T21:16:30.879Z,95.33
2018-12-11T21:19:00.490Z,95.57
2018-12-11T21:21:30.226Z,95.87
2018-12-11T21:24:00.177Z,95.57
2018-12-11T21:26:29.413Z,95.97
2018-12-11T21:28:58.680Z,95.80
2018-12-11T21:31:27.878Z,95.81
2018-12-11T21:33:57.029Z,95.88
2018-12-11T21:36:26.271Z,95.58
2018-12-11T21:38:55.478Z,96.22
2018-12-11T21:41:24.644Z,96.26
2018-12-11T21:43:53.803Z,96.36
2018-12-11T21:46:22.984Z,96.12
2018-12-11T21:48:52.184Z,96.00
2018-12-11T21:51:21.381Z,95.90
2018-12-11T21:54:23.977Z,95.50
2018-12-11T21:56:53.226Z,96.36
2018-12-11T21:59:22.790Z,96.49
2018-12-11T22:01:51.971Z,95.69
2018-12-11T22:04:22.572Z,96.28
2018-12-11T22:06:52.650Z,96.33
2018-12-11T22:09:21.761Z,95.79
2018-12-11T22:11:51.174Z,96.54
2018-12-11T22:14:20.337Z,96.10
2018-12-11T22:16:49.595Z,95.99
2018-12-11T22:19:18.852Z,95.84
2018-12-11T22:21:48.022Z,96.11
2018-12-11T22:24:17.349Z,96.18
2018-12-11T22:26:46.549Z,95.57
2018-12-11T22:29:18.982Z,95.89
2018-12-11T22:31:48.117Z,95.97
2018-12-11T22:34:18.135Z,95.47
2018-12-11T22:36:47.519Z,96.27
2018-12-11T22:39:16.915Z,96.03
2018-12-11T22:41:46.014Z,95.60
2018-12-11T22:44:15.242Z,95.56
2018-12-11T22:46:44.355Z,95.43
2018-12-11T22:49:13.522Z,96.29
2018-12-11T22:51:43.001Z,95.61
2018-12-11T22:54:12.590Z,96.61
2018-12-11T22:56:41.710Z,96.38
2018-12-11T22:59:10.833Z,96.45
2018-12-11T23:01:40.204Z,96.13
2018-12-11T23:04:09.335Z,96.66
2018-12-11T23:06:38.484Z,96.36
2018-12-11T23:09:08.003Z,95.92
2018-12-11T23:11:37.223Z,96.58
2018-12-11T23:14:06.357Z,97.79
2018-12-11T23:16:35.535Z,97.04
2018-12-11T23:19:04.776Z,97.21
2018-12-11T23:21:33.914Z,97.44
2018-12-11T23:24:03.108Z,97.10
2018-12-11T23:26:42.242Z,96.44
2018-12-11T23:29:11.370Z,97.18
2018-12-11T23:31:40.532Z,97.15
2018-12-11T23:34:09.661Z,97.72
2018-12-11T23:36:38.807Z,97.33
2018-12-11T23:39:07.942Z,97.12
2018-12-11T23:41:37.121Z,97.49
2018-12-11T23:44:06.300Z,97.21
2018-12-11T23:46:35.444Z,97.17
2018-12-11T23:49:04.792Z,97.17
2018-12-11T23:51:34.266Z,97.54
2018-12-11T23:54:03.923Z,97.64
2018-12-11T23:56:33.087Z,97.62
2018-12-11T23:59:02.615Z,97.03
